createdAt,value
2023-05-04T00:01:56.929Z,17.90
2023-05-04T00:04:23.516Z,18.27
2023-05-04T00:06:50.069Z,18.22
2023-05-04T00:09:16.786Z,18.26
2023-05-04T00:11:43.318Z,18.16
2023-05-04T00:14:09.831Z,18.53
2023-05-04T00:16:36.624Z,18.41
2023-05-04T00:19:03.263Z,18.71
2023-05-04T00:21:29.790Z,18.85
2023-05-04T00:23:56.513Z,18.90
2023-05-04T00:26:23.058Z,18.59
2023-05-04T00:28:49.559Z,18.69
2023-05-04T00:31:19.195Z,18.57
2023-05-04T00:33:46.297Z,18.55
2023-05-04T00:36:14.016Z,18.76
2023-05-04T00:38:50.917Z,18.47
2023-05-04T00:41:19.055Z,18.84
2023-05-04T00:43:45.722Z,18.68
2023-05-04T00:46:13.294Z,18.65
2023-05-04T00:48:41.551Z,18.79
2023-05-04T00:51:10.825Z,18.64
2023-05-04T00:53:39.042Z,18.78
2023-05-04T00:56:06.871Z,18.79
2023-05-04T00:58:33.973Z,18.66
2023-05-04T01:03:42.526Z,18.71
2023-05-04T01:06:27.310Z,18.69
2023-05-04T01:09:10.882Z,18.75
2023-05-04T01:11:42.848Z,18.66
2023-05-04T01:14:11.696Z,18.60
2023-05-04T01:16:38.287Z,18.53
2023-05-04T01:19:04.884Z,18.75
2023-05-04T01:21:31.714Z,18.61
2023-05-04T01:23:59.171Z,18.67
2023-05-04T01:26:29.913Z,18.69
2023-05-04T01:29:00.802Z,18.80
2023-05-04T01:31:27.760Z,18.63
2023-05-04T01:33:55.036Z,18.56
2023-05-04T01:36:22.977Z,18.43
2023-05-04T01:38:49.814Z,18.57
2023-05-04T01:41:16.314Z,18.75
2023-05-04T01:43:43.084Z,18.75
2023-05-04T01:46:09.681Z,18.67
2023-05-04T01:48:36.649Z,18.66
2023-05-04T01:51:03.552Z,18.24
2023-05-04T01:53:30.653Z,18.23
2023-05-04T01:55:57.311Z,18.30
2023-05-04T01:58:23.913Z,18.36
2023-05-04T02:00:50.408Z,18.25
2023-05-04T02:03:16.995Z,18.28
2023-05-04T02:05:43.685Z,18.49
2023-05-04T02:08:10.360Z,18.09
2023-05-04T02:10:37.007Z,18.39
2023-05-04T02:13:03.704Z,18.30
2023-05-04T02:15:30.287Z,18.11
2023-05-04T02:17:56.977Z,18.36
2023-05-04T02:20:23.664Z,18.16
2023-05-04T02:22:50.154Z,18.27
2023-05-04T02:25:16.825Z,18.21
2023-05-04T02:27:43.400Z,18.14
2023-05-04T02:30:10.463Z,18.42
2023-05-04T02:32:37.094Z,18.20
2023-05-04T02:35:04.005Z,18.04
2023-05-04T02:37:30.671Z,18.01
2023-05-04T02:39:57.301Z,18.23
2023-05-04T02:42:23.887Z,18.35
2023-05-04T02:44:50.498Z,18.20
2023-05-04T02:47:17.242Z,18.15
2023-05-04T02:49:43.916Z,18.10
2023-05-04T02:52:10.484Z,18.06
2023-05-04T02:54:38.606Z,17.96
2023-05-04T02:57:05.982Z,17.88
2023-05-04T02:59:32.690Z,18.00
2023-05-04T03:01:59.332Z,17.94
2023-05-04T03:04:26.126Z,18.06
2023-05-04T03:06:52.770Z,18.11
2023-05-04T03:09:19.367Z,18.11
2023-05-04T03:11:46.210Z,17.92
2023-05-04T03:14:12.722Z,17.95
2023-05-04T03:16:39.402Z,17.84
2023-05-04T03:19:06.097Z,17.92
2023-05-04T03:21:32.585Z,17.47
2023-05-04T03:23:59.194Z,17.22
2023-05-04T03:26:25.809Z,17.01
2023-05-04T03:28:52.387Z,17.20
2023-05-04T03:31:19.103Z,17.18
2023-05-04T03:33:45.756Z,16.94
2023-05-04T03:36:12.285Z,16.62
2023-05-04T03:38:38.880Z,17.30
2023-05-04T03:41:05.498Z,16.92
2023-05-04T03:43:32.094Z,16.63
2023-05-04T03:45:58.827Z,16.04
2023-05-04T03:48:25.510Z,15.73
2023-05-04T03:50:52.037Z,15.64
2023-05-04T03:53:18.656Z,15.60
2023-05-04T03:55:45.325Z,15.95
2023-05-04T03:58:11.830Z,15.94
2023-05-04T04:00:38.572Z,15.55
2023-05-04T04:03:05.327Z,15.70
2023-05-04T04:05:31.957Z,16.11
2023-05-04T04:07:58.711Z,15.95
2023-05-04T04:10:25.339Z,15.79
2023-05-04T04:12:51.890Z,15.72
2023-05-04T04:15:18.565Z,15.82
2023-05-04T04:17:45.181Z,15.97
2023-05-04T04:20:12.956Z,15.64
2023-05-04T04:22:39.678Z,15.83
2023-05-04T04:25:06.592Z,15.80
2023-05-04T04:27:33.129Z,15.88
2023-05-04T04:29:59.748Z,15.96
2023-05-04T04:32:26.354Z,15.71
2023-05-04T04:34:52.891Z,15.78
2023-05-04T04:37:19.646Z,15.60
2023-05-04T04:39:46.367Z,15.63
2023-05-04T04:42:13.527Z,15.71
2023-05-04T04:44:40.857Z,15.80
2023-05-04T04:47:07.774Z,15.84
2023-05-04T04:49:35.021Z,15.90
2023-05-04T04:52:01.981Z,16.09
2023-05-04T04:54:28.649Z,16.31
2023-05-04T04:56:55.157Z,16.39
2023-05-04T04:59:24.856Z,16.22
2023-05-04T05:01:51.823Z,16.36
2023-05-04T05:04:19.736Z,16.45
2023-05-04T05:06:46.348Z,16.59
2023-05-04T05:09:12.943Z,16.48
2023-05-04T05:11:39.588Z,16.46
2023-05-04T05:14:06.595Z,16.35
2023-05-04T05:16:33.344Z,16.40
2023-05-04T05:18:59.896Z,16.51
2023-05-04T05:21:26.873Z,16.77
2023-05-04T05:23:53.564Z,16.66
2023-05-04T05:26:20.067Z,16.53
2023-05-04T05:28:46.717Z,16.73
2023-05-04T05:31:13.624Z,16.65
2023-05-04T05:33:40.837Z,16.71
2023-05-04T05:36:07.630Z,16.73
2023-05-04T05:38:34.319Z,16.89
2023-05-04T05:41:00.898Z,16.93
2023-05-04T05:43:27.481Z,17.16
2023-05-04T05:45:54.367Z,17.24
2023-05-04T05:48:21.002Z,17.32
2023-05-04T05:50:47.571Z,17.36
2023-05-04T05:53:14.179Z,17.56
2023-05-04T05:55:40.790Z,17.72
2023-05-04T05:58:08.672Z,17.94
2023-05-04T06:00:35.318Z,18.21
2023-05-04T06:03:02.024Z,18.22
2023-05-04T06:05:28.714Z,18.49
2023-05-04T06:07:55.447Z,18.78
2023-05-04T06:10:22.331Z,18.79
2023-05-04T06:12:48.943Z,18.93
2023-05-04T06:15:15.620Z,18.95
2023-05-04T06:17:42.337Z,19.08
2023-05-04T06:20:09.436Z,19.04
2023-05-04T06:22:36.135Z,19.30
2023-05-04T06:25:05.316Z,19.33
2023-05-04T06:27:34.574Z,19.30
2023-05-04T06:30:01.173Z,19.38
2023-05-04T06:32:27.853Z,19.31
2023-05-04T06:34:55.629Z,19.31
2023-05-04T06:37:22.533Z,19.43
2023-05-04T06:39:49.078Z,19.54
2023-05-04T06:42:15.898Z,19.63
2023-05-04T06:44:42.565Z,19.56
2023-05-04T06:47:09.119Z,19.46
2023-05-04T06:49:35.958Z,19.46
2023-05-04T06:52:02.933Z,19.82
2023-05-04T06:54:29.482Z,19.80
2023-05-04T06:57:05.378Z,19.86
2023-05-04T06:59:32.043Z,19.71
2023-05-04T07:01:58.563Z,19.85
2023-05-04T07:04:25.183Z,20.00
2023-05-04T07:06:52.318Z,20.21
2023-05-04T07:09:19.672Z,20.10
2023-05-04T07:11:46.340Z,20.28
2023-05-04T07:14:12.975Z,20.06
2023-05-04T07:16:39.575Z,20.14
2023-05-04T07:19:06.115Z,20.37
2023-05-04T07:21:33.004Z,20.35
2023-05-04T07:23:59.612Z,20.55
2023-05-04T07:26:26.292Z,20.56
2023-05-04T07:28:53.285Z,20.63
2023-05-04T07:31:19.852Z,20.50
2023-05-04T07:33:46.424Z,20.65
2023-05-04T07:36:13.119Z,20.61
2023-05-04T07:38:39.777Z,20.55
2023-05-04T07:41:07.327Z,20.66
2023-05-04T07:43:33.907Z,20.68
2023-05-04T07:46:00.837Z,20.85
2023-05-04T07:48:27.387Z,20.88
2023-05-04T07:50:54.715Z,21.03
2023-05-04T07:53:21.492Z,21.10
2023-05-04T07:55:48.518Z,21.37
2023-05-04T07:58:16.737Z,21.46
2023-05-04T08:00:43.489Z,21.36
2023-05-04T08:03:10.254Z,21.60
2023-05-04T08:05:36.976Z,21.48
2023-05-04T08:08:03.664Z,21.65
2023-05-04T08:10:30.238Z,21.81
2023-05-04T08:12:57.101Z,21.71
2023-05-04T08:15:23.797Z,21.60
2023-05-04T08:17:50.545Z,21.62
2023-05-04T08:20:17.244Z,21.87
2023-05-04T08:22:43.773Z,21.96
2023-05-04T08:25:10.408Z,21.62
2023-05-04T08:27:37.072Z,21.85
2023-05-04T08:30:03.889Z,21.96
2023-05-04T08:32:33.091Z,22.02
2023-05-04T08:35:00.098Z,22.24
2023-05-04T08:37:26.689Z,22.30
2023-05-04T08:39:53.236Z,22.27
2023-05-04T08:42:32.903Z,22.25
2023-05-04T08:44:59.823Z,22.54
2023-05-04T08:47:27.951Z,22.84
2023-05-04T08:49:56.434Z,22.96
2023-05-04T08:52:24.717Z,22.96
2023-05-04T08:54:55.904Z,23.03
2023-05-04T08:57:26.285Z,23.05
2023-05-04T08:59:54.284Z,23.25
2023-05-04T09:02:22.761Z,23.17
2023-05-04T09:04:50.378Z,23.25
2023-05-04T09:07:21.743Z,23.41
2023-05-04T09:09:50.965Z,23.16
2023-05-04T09:12:18.282Z,23.07
2023-05-04T09:14:46.693Z,23.16
2023-05-04T09:17:25.659Z,23.12
2023-05-04T09:20:03.150Z,23.17
2023-05-04T09:22:30.794Z,23.24
2023-05-04T09:25:11.433Z,23.38
2023-05-04T09:27:39.371Z,23.32
2023-05-04T09:30:06.928Z,23.37
2023-05-04T09:35:04.942Z,23.32
2023-05-04T09:37:31.990Z,23.43
2023-05-04T09:39:59.162Z,23.45
2023-05-04T09:42:27.106Z,23.49
2023-05-04T09:45:04.438Z,23.61
2023-05-04T09:47:41.714Z,23.66
2023-05-04T09:50:13.205Z,23.59
2023-05-04T09:52:42.100Z,23.80
2023-05-04T09:55:12.680Z,23.79
2023-05-04T09:57:41.491Z,23.91
2023-05-04T10:00:13.767Z,24.27
2023-05-04T10:02:40.892Z,24.22
2023-05-04T10:05:09.433Z,24.26
2023-05-04T10:07:36.713Z,24.29
2023-05-04T10:10:03.685Z,24.30
2023-05-04T10:12:31.025Z,24.31
2023-05-04T10:14:58.389Z,24.40
2023-05-04T10:18:06.186Z,24.36
2023-05-04T10:20:51.137Z,24.54
2023-05-04T10:23:45.929Z,24.64
2023-05-04T10:26:18.515Z,24.59
2023-05-04T10:29:12.947Z,24.77
2023-05-04T10:31:41.246Z,24.76
2023-05-04T10:34:08.744Z,24.90
2023-05-04T10:36:39.135Z,25.18
2023-05-04T10:39:17.464Z,25.18
2023-05-04T10:42:04.642Z,25.24
2023-05-04T10:44:33.064Z,25.27
2023-05-04T10:47:02.317Z,25.38
2023-05-04T10:49:29.709Z,25.44
2023-05-04T10:52:09.497Z,25.38
2023-05-04T10:54:37.260Z,25.52
2023-05-04T10:57:06.408Z,25.52
2023-05-04T10:59:35.404Z,25.58
2023-05-04T11:02:03.652Z,25.65
2023-05-04T11:04:31.070Z,25.57
2023-05-04T11:06:57.940Z,25.67
2023-05-04T11:09:26.694Z,25.70
2023-05-04T11:11:54.208Z,25.76
2023-05-04T11:14:28.561Z,25.78
2023-05-04T11:19:53.481Z,25.84
2023-05-04T11:22:20.250Z,25.84
2023-05-04T11:24:49.113Z,25.72
2023-05-04T11:27:26.338Z,25.67
2023-05-04T11:30:01.475Z,25.65
2023-05-04T11:32:39.754Z,25.77
2023-05-04T11:35:15.120Z,25.61
2023-05-04T11:37:43.099Z,25.64
2023-05-04T11:40:14.037Z,25.69
2023-05-04T11:42:42.547Z,25.86
2023-05-04T11:45:19.541Z,25.74
2023-05-04T11:47:47.475Z,25.67
2023-05-04T11:50:16.103Z,25.66
2023-05-04T11:52:43.498Z,25.62
2023-05-04T11:55:25.210Z,25.55
2023-05-04T11:57:59.062Z,25.51
2023-05-04T12:00:43.180Z,25.70
2023-05-04T12:03:15.940Z,25.68
2023-05-04T12:05:47.307Z,25.85
2023-05-04T12:08:30.607Z,25.86
2023-05-04T12:11:25.596Z,26.13
2023-05-04T12:14:04.575Z,26.24
2023-05-04T12:16:31.438Z,26.30
2023-05-04T12:19:06.560Z,26.37
2023-05-04T12:21:34.608Z,26.33
2023-05-04T12:24:01.413Z,26.42
2023-05-04T12:26:28.465Z,26.24
2023-05-04T12:28:55.146Z,26.35
2023-05-04T12:31:24.901Z,26.40
2023-05-04T12:33:51.861Z,26.40
2023-05-04T12:36:18.942Z,26.52
2023-05-04T12:38:46.232Z,26.41
2023-05-04T12:41:13.063Z,26.35
2023-05-04T12:43:39.778Z,26.42
2023-05-04T12:46:06.822Z,26.58
2023-05-04T12:48:33.427Z,26.48
2023-05-04T12:51:01.754Z,26.36
2023-05-04T12:53:31.550Z,26.42
2023-05-04T12:55:59.114Z,26.51
2023-05-04T12:58:25.814Z,26.52
2023-05-04T13:00:52.357Z,26.57
2023-05-04T13:03:19.424Z,26.59
2023-05-04T13:05:47.618Z,26.59
2023-05-04T13:08:14.215Z,26.60
2023-05-04T13:10:41.003Z,26.56
2023-05-04T13:13:07.650Z,26.63
2023-05-04T13:15:34.188Z,26.68
2023-05-04T13:18:01.473Z,26.70
2023-05-04T13:20:28.156Z,26.78
2023-05-04T13:22:58.188Z,26.90
2023-05-04T13:25:25.003Z,27.07
2023-05-04T13:27:52.019Z,27.09
2023-05-04T13:30:20.546Z,27.14
2023-05-04T13:32:47.186Z,27.12
2023-05-04T13:35:13.798Z,27.24
2023-05-04T13:37:40.317Z,27.37
2023-05-04T13:40:07.451Z,27.41
2023-05-04T13:42:36.916Z,27.49
2023-05-04T13:45:04.042Z,27.73
2023-05-04T13:47:30.817Z,27.93
2023-05-04T13:49:57.897Z,28.14
2023-05-04T13:52:24.530Z,28.27
2023-05-04T13:54:52.504Z,28.35
2023-05-04T13:57:19.393Z,28.41
2023-05-04T13:59:58.398Z,28.60
2023-05-04T14:02:34.134Z,28.71
2023-05-04T14:05:01.406Z,28.75
2023-05-04T14:07:28.032Z,28.89
2023-05-04T14:09:56.149Z,28.93
2023-05-04T14:12:22.871Z,29.10
2023-05-04T14:14:50.778Z,29.16
2023-05-04T14:17:17.787Z,29.16
2023-05-04T14:19:45.039Z,29.10
2023-05-04T14:22:11.903Z,29.17
2023-05-04T14:24:38.602Z,29.28
2023-05-04T14:27:05.230Z,29.25
2023-05-04T14:29:33.307Z,29.38
2023-05-04T14:32:01.049Z,29.58
2023-05-04T14:34:30.485Z,29.54
2023-05-04T14:36:57.697Z,29.48
2023-05-04T14:39:25.008Z,29.24
2023-05-04T14:41:53.190Z,29.23
2023-05-04T14:44:20.560Z,29.48
2023-05-04T14:46:47.488Z,29.60
2023-05-04T14:49:18.680Z,29.73
2023-05-04T14:51:51.692Z,29.59
2023-05-04T14:54:18.264Z,29.81
2023-05-04T14:56:44.788Z,29.57
2023-05-04T14:59:11.762Z,29.41
2023-05-04T15:01:38.342Z,29.62
2023-05-04T15:04:05.045Z,29.49
2023-05-04T15:06:32.875Z,29.37
2023-05-04T15:08:59.606Z,29.44
2023-05-04T15:11:26.208Z,29.51
2023-05-04T15:13:55.845Z,29.82
2023-05-04T15:16:22.421Z,29.93
2023-05-04T15:18:49.047Z,30.08
2023-05-04T15:21:16.504Z,29.96
2023-05-04T15:23:43.041Z,29.94
2023-05-04T15:26:09.573Z,29.83
2023-05-04T15:28:36.348Z,29.89
2023-05-04T15:31:05.134Z,29.85
2023-05-04T15:33:32.253Z,29.80
2023-05-04T15:35:58.962Z,29.68
2023-05-04T15:38:26.697Z,29.43
2023-05-04T15:40:53.406Z,29.65
2023-05-04T15:43:20.013Z,29.91
2023-05-04T15:45:46.545Z,30.04
2023-05-04T15:48:13.207Z,29.89
2023-05-04T15:50:39.885Z,30.00
2023-05-04T15:53:06.379Z,29.78
2023-05-04T15:55:32.942Z,29.89
2023-05-04T15:57:59.670Z,29.84
2023-05-04T16:00:26.954Z,30.11
2023-05-04T16:02:53.737Z,30.39
2023-05-04T16:05:20.621Z,30.55
2023-05-04T16:07:47.180Z,30.65
2023-05-04T16:10:13.743Z,30.71
2023-05-04T16:12:41.373Z,30.90
2023-05-04T16:15:08.112Z,30.84
2023-05-04T16:17:35.446Z,31.20
2023-05-04T16:20:04.007Z,31.67
2023-05-04T16:22:31.718Z,31.94
2023-05-04T16:24:58.801Z,32.21
2023-05-04T16:27:27.314Z,32.37
2023-05-04T16:29:54.678Z,32.01
2023-05-04T16:32:21.860Z,32.05
2023-05-04T16:34:48.655Z,31.91
2023-05-04T16:37:16.080Z,31.64
2023-05-04T16:39:42.735Z,31.99
2023-05-04T16:42:10.022Z,31.11
2023-05-04T16:44:36.654Z,30.44
2023-05-04T16:47:03.326Z,29.91
2023-05-04T16:49:30.350Z,29.53
2023-05-04T16:51:57.259Z,29.59
2023-05-04T16:54:24.215Z,29.37
2023-05-04T16:56:52.136Z,29.30
2023-05-04T16:59:18.682Z,28.97
2023-05-04T17:01:45.764Z,28.98
2023-05-04T17:04:12.485Z,29.06
2023-05-04T17:06:39.008Z,28.83
2023-05-04T17:09:05.645Z,29.41
2023-05-04T17:11:32.332Z,30.07
2023-05-04T17:13:59.727Z,30.55
2023-05-04T17:16:26.270Z,30.65
2023-05-04T17:18:53.196Z,30.53
2023-05-04T17:21:19.885Z,30.53
2023-05-04T17:23:46.395Z,30.68
2023-05-04T17:26:13.122Z,30.83
2023-05-04T17:28:39.662Z,31.31
2023-05-04T17:31:09.387Z,31.52
2023-05-04T17:33:35.996Z,32.08
2023-05-04T17:36:03.906Z,31.99
2023-05-04T17:38:30.490Z,32.40
2023-05-04T17:40:57.069Z,32.67
2023-05-04T17:43:23.661Z,32.45
2023-05-04T17:45:50.217Z,32.57
2023-05-04T17:48:16.872Z,32.33
2023-05-04T17:50:43.416Z,31.93
2023-05-04T17:53:09.954Z,31.26
2023-05-04T17:55:36.694Z,30.53
2023-05-04T17:58:03.898Z,30.15
2023-05-04T18:00:30.495Z,30.26
2023-05-04T18:02:57.364Z,29.37
2023-05-04T18:05:25.111Z,28.90
2023-05-04T18:07:51.726Z,28.86
2023-05-04T18:10:18.473Z,28.62
2023-05-04T18:12:45.070Z,28.29
2023-05-04T18:15:12.032Z,27.84
2023-05-04T18:17:38.842Z,27.96
2023-05-04T18:20:07.350Z,27.76
2023-05-04T18:22:34.481Z,27.49
2023-05-04T18:25:01.426Z,27.28
2023-05-04T18:27:33.360Z,27.23
2023-05-04T18:30:00.796Z,27.01
2023-05-04T18:32:27.927Z,26.89
2023-05-04T18:34:54.740Z,26.78
2023-05-04T18:37:21.672Z,26.86
2023-05-04T18:39:48.324Z,26.93
2023-05-04T18:42:14.966Z,26.65
2023-05-04T18:44:41.485Z,26.47
2023-05-04T18:47:08.774Z,26.38
2023-05-04T18:49:35.373Z,26.29
2023-05-04T18:52:02.186Z,26.10
2023-05-04T18:54:34.757Z,26.00
2023-05-04T18:57:03.405Z,26.02
2023-05-04T18:59:32.440Z,25.95
2023-05-04T19:01:59.049Z,25.92
2023-05-04T19:04:25.590Z,25.65
2023-05-04T19:06:53.686Z,25.75
2023-05-04T19:09:20.526Z,25.72
2023-05-04T19:11:47.209Z,25.61
2023-05-04T19:14:13.964Z,25.52
2023-05-04T19:16:40.743Z,25.49
2023-05-04T19:19:07.570Z,25.43
2023-05-04T19:21:34.107Z,25.34
2023-05-04T19:24:00.827Z,25.29
2023-05-04T19:26:27.504Z,25.23
2023-05-04T19:28:54.062Z,25.00
2023-05-04T19:31:20.843Z,24.97
2023-05-04T19:33:49.596Z,24.74
2023-05-04T19:36:17.142Z,24.62
2023-05-04T19:38:43.997Z,24.56
2023-05-04T19:41:10.689Z,24.34
2023-05-04T19:43:38.832Z,24.33
2023-05-04T19:46:06.065Z,24.53
2023-05-04T19:48:33.012Z,24.58
2023-05-04T19:50:59.759Z,24.38
2023-05-04T19:53:26.455Z,24.27
2023-05-04T19:55:53.038Z,24.27
2023-05-04T19:58:19.707Z,24.26
2023-05-04T20:00:46.585Z,24.37
2023-05-04T20:03:13.503Z,24.31
2023-05-04T20:05:40.469Z,24.30
2023-05-04T20:08:07.138Z,23.92
2023-05-04T20:10:33.801Z,24.04
2023-05-04T20:13:00.372Z,23.99
2023-05-04T20:15:27.202Z,24.17
2023-05-04T20:17:53.882Z,24.14
2023-05-04T20:20:21.944Z,24.14
2023-05-04T20:22:52.404Z,23.90
2023-05-04T20:25:19.964Z,23.28
2023-05-04T20:27:48.681Z,23.34
2023-05-04T20:30:15.657Z,23.26
2023-05-04T20:32:42.761Z,23.14
2023-05-04T20:35:09.609Z,22.77
2023-05-04T20:37:36.404Z,23.07
2023-05-04T20:40:02.999Z,23.13
2023-05-04T20:42:29.939Z,23.47
2023-05-04T20:44:56.518Z,23.36
2023-05-04T20:47:23.468Z,23.29
2023-05-04T20:49:49.981Z,23.19
2023-05-04T20:52:16.725Z,23.41
2023-05-04T20:54:43.318Z,23.76
2023-05-04T20:57:09.884Z,23.82
2023-05-04T20:59:36.536Z,23.98
2023-05-04T21:02:03.194Z,24.07
2023-05-04T21:04:29.814Z,24.20
2023-05-04T21:06:57.362Z,24.27
2023-05-04T21:09:24.101Z,24.24
2023-05-04T21:11:50.755Z,24.14
2023-05-04T21:14:17.487Z,24.07
2023-05-04T21:16:44.224Z,24.00
2023-05-04T21:19:10.908Z,24.10
2023-05-04T21:21:41.177Z,23.86
2023-05-04T21:24:12.908Z,23.71
2023-05-04T21:26:39.722Z,23.67
2023-05-04T21:29:11.329Z,23.62
2023-05-04T21:31:38.128Z,23.43
2023-05-04T21:34:04.914Z,23.21
2023-05-04T21:36:31.900Z,22.94
2023-05-04T21:38:58.823Z,22.29
2023-05-04T21:41:25.695Z,22.47
2023-05-04T21:43:52.409Z,22.46
2023-05-04T21:46:19.197Z,22.64
2023-05-04T21:48:45.864Z,22.79
2023-05-04T21:51:12.847Z,22.63
2023-05-04T21:53:39.542Z,22.55
2023-05-04T21:56:08.403Z,22.65
2023-05-04T21:58:37.390Z,22.54
2023-05-04T22:01:04.224Z,22.40
2023-05-04T22:03:30.865Z,22.29
2023-05-04T22:05:58.146Z,22.18
2023-05-04T22:08:25.390Z,22.48
2023-05-04T22:10:53.263Z,22.88
2023-05-04T22:13:20.312Z,23.05
2023-05-04T22:15:50.402Z,23.35
2023-05-04T22:18:17.828Z,23.03
2023-05-04T22:20:45.777Z,22.54
2023-05-04T22:23:13.163Z,22.47
2023-05-04T22:25:40.197Z,22.58
2023-05-04T22:28:06.965Z,22.36
2023-05-04T22:30:33.729Z,22.16
2023-05-04T22:33:00.453Z,21.95
2023-05-04T22:35:27.480Z,21.76
2023-05-04T22:37:54.273Z,21.64
2023-05-04T22:40:21.287Z,22.09
2023-05-04T22:42:48.052Z,22.01
2023-05-04T22:45:15.055Z,21.89
2023-05-04T22:47:42.382Z,21.79
2023-05-04T22:50:10.685Z,21.70
2023-05-04T22:52:38.231Z,21.69
2023-05-04T22:55:05.894Z,21.70
2023-05-04T22:57:36.766Z,21.85
2023-05-04T23:00:05.553Z,21.69
2023-05-04T23:02:32.311Z,21.81
2023-05-04T23:04:59.774Z,21.90
2023-05-04T23:07:26.515Z,21.96
2023-05-04T23:09:53.021Z,21.82
2023-05-04T23:12:19.658Z,21.76
2023-05-04T23:14:50.143Z,21.06
2023-05-04T23:17:16.997Z,21.35
2023-05-04T23:19:43.755Z,21.11
2023-05-04T23:22:10.434Z,21.17
2023-05-04T23:24:37.169Z,20.87
2023-05-04T23:27:04.079Z,20.88
2023-05-04T23:29:30.878Z,21.23
2023-05-04T23:31:57.629Z,21.59
2023-05-04T23:34:24.496Z,21.70
2023-05-04T23:36:54.145Z,21.83
2023-05-04T23:39:20.900Z,21.47
2023-05-04T23:41:47.814Z,21.37
2023-05-04T23:44:14.506Z,21.25
2023-05-04T23:46:41.155Z,21.28
2023-05-04T23:49:07.777Z,21.52
2023-05-04T23:51:34.409Z,21.64
2023-05-04T23:54:00.953Z,21.35
2023-05-04T23:56:27.546Z,20.94
2023-05-04T23:58:54.209Z,20.69
